Time;durP1;ratioP1;P1;durP2;ratioP2;P2;SDS_P1;SDS_P2;PMS_P1;PMS_P2;Temp;Humidity;BMP_temperature;BMP_pressure;BME280_temperature;BME280_humidity;BME280_pressure;Samples;Min_cycle;Max_cycle;Signal;HPM_P1;HPM_P2
2023/04/02 00:00:30;;;;;;;;;;;27.60;99.90;;;;;;5097834;22;20326;-47
2023/04/02 00:03:02;;;;;;;;;;;27.50;99.90;;;;;;5076000;28;19930;-45
2023/04/02 00:05:29;;;;;;;;;;;27.60;99.90;;;;;;5093952;28;19919;-45
2023/04/02 00:07:59;;;;;;;;;;;27.50;99.90;;;;;;5094077;28;19930;-46
2023/04/02 00:10:25;;;;;;;;;;;27.50;99.90;;;;;;5094230;28;19909;-45
2023/04/02 00:13:01;;;;;;;;;;;27.50;99.90;;;;;;5092481;28;19908;-45
2023/04/02 00:15:27;;;;;;;;;;;27.50;99.90;;;;;;5093862;28;20314;-45
2023/04/02 00:17:53;;;;;;;;;;;27.50;99.90;;;;;;5094117;28;20006;-46
2023/04/02 00:20:19;;;;;;;;;;;27.50;99.90;;;;;;5093411;28;20003;-45
2023/04/02 00:22:45;;;;;;;;;;;27.50;99.90;;;;;;5093808;28;20386;-45
2023/04/02 00:25:14;;;;;;;;;;;27.40;99.90;;;;;;5092509;28;19912;-46
2023/04/02 00:27:40;;;;;;;;;;;27.40;99.90;;;;;;5093559;28;19951;-45
2023/04/02 00:30:06;;;;;;;;;;;27.40;99.90;;;;;;5093542;28;19909;-45
2023/04/02 00:32:33;;;;;;;;;;;27.40;99.90;;;;;;5093585;28;20332;-45
2023/04/02 00:34:59;;;;;;;;;;;27.40;99.90;;;;;;5093668;28;19908;-45
2023/04/02 00:37:26;;;;;;;;;;;27.40;99.90;;;;;;5093683;28;19908;-45
2023/04/02 00:39:59;;;;;;;;;;;27.40;99.90;;;;;;5093465;28;19919;-47
2023/04/02 00:42:25;;;;;;;;;;;27.40;99.90;;;;;;5093519;28;20256;-45
2023/04/02 00:44:53;;;;;;;;;;;27.40;99.90;;;;;;5093149;28;19955;-45
2023/04/02 00:47:23;;;;;;;;;;;27.40;99.90;;;;;;5093408;28;19908;-45
2023/04/02 00:49:53;;;;;;;;;;;27.40;99.90;;;;;;5093082;28;19947;-45
2023/04/02 00:52:22;;;;;;;;;;;27.30;99.90;;;;;;5075109;28;19954;-45
2023/04/02 00:54:49;;;;;;;;;;;27.30;99.90;;;;;;5093073;28;19916;-45
2023/04/02 00:57:19;;;;;;;;;;;27.30;99.90;;;;;;5092861;28;19912;-45
2023/04/02 00:59:55;;;;;;;;;;;27.30;99.90;;;;;;5075128;28;20279;-46
2023/04/02 01:02:25;;;;;;;;;;;27.30;99.90;;;;;;5093113;28;19912;-45
2023/04/02 01:04:55;;;;;;;;;;;27.30;99.90;;;;;;5092876;28;19914;-45
2023/04/02 01:07:24;;;;;;;;;;;27.20;99.90;;;;;;5093115;28;19908;-46
2023/04/02 01:09:49;;;;;;;;;;;27.20;99.90;;;;;;5092757;28;20002;-44
2023/04/02 01:12:17;;;;;;;;;;;27.20;99.90;;;;;;5093017;28;19954;-45
2023/04/02 01:14:52;;;;;;;;;;;27.20;99.90;;;;;;5092699;28;19937;-45
2023/04/02 01:17:18;;;;;;;;;;;27.20;99.90;;;;;;5092991;28;20410;-45
2023/04/02 01:20:06;;;;;;;;;;;27.20;99.90;;;;;;5092363;28;19995;-45
2023/04/02 01:22:34;;;;;;;;;;;27.20;99.90;;;;;;5092831;28;19912;-45
2023/04/02 01:25:03;;;;;;;;;;;27.20;99.90;;;;;;5091344;28;20352;-46
2023/04/02 01:27:33;;;;;;;;;;;27.20;99.90;;;;;;5092184;28;20340;-45
2023/04/02 01:30:00;;;;;;;;;;;27.10;99.90;;;;;;5092442;28;19908;-45
2023/04/02 01:32:27;;;;;;;;;;;27.10;99.90;;;;;;5092692;28;19909;-45
2023/04/02 01:34:53;;;;;;;;;;;27.10;99.90;;;;;;5074189;28;20382;-45
2023/04/02 01:37:31;;;;;;;;;;;27.10;99.90;;;;;;5092556;28;19915;-45
2023/04/02 01:39:59;;;;;;;;;;;27.10;99.90;;;;;;5092279;28;19912;-45
2023/04/02 01:42:43;;;;;;;;;;;27.10;99.90;;;;;;5092396;28;19934;-45
2023/04/02 01:45:13;;;;;;;;;;;27.10;99.90;;;;;;5092133;28;19919;-46
2023/04/02 01:47:39;;;;;;;;;;;27.10;99.90;;;;;;5092555;28;20004;-46
2023/04/02 01:50:20;;;;;;;;;;;27.10;99.90;;;;;;5092104;28;20287;-46
2023/04/02 01:52:48;;;;;;;;;;;27.10;99.90;;;;;;5092487;28;19908;-46
2023/04/02 01:55:16;;;;;;;;;;;27.00;99.90;;;;;;5092267;28;19919;-46
2023/04/02 01:57:43;;;;;;;;;;;27.00;99.90;;;;;;5092192;28;19908;-46
2023/04/02 02:00:13;;;;;;;;;;;27.00;99.90;;;;;;5092717;28;19927;-46
2023/04/02 02:02:40;;;;;;;;;;;27.00;99.90;;;;;;5092411;28;19951;-46
2023/04/02 02:05:11;;;;;;;;;;;27.00;99.90;;;;;;5092000;28;19960;-46
2023/04/02 02:07:37;;;;;;;;;;;27.00;99.90;;;;;;5092323;28;20283;-46
2023/04/02 02:10:02;;;;;;;;;;;27.00;99.90;;;;;;5092035;28;19915;-47
2023/04/02 02:12:28;;;;;;;;;;;27.00;99.90;;;;;;5092119;28;19930;-47
2023/04/02 02:14:54;;;;;;;;;;;27.00;99.90;;;;;;5074116;28;19908;-47
2023/04/02 02:17:25;;;;;;;;;;;27.00;99.90;;;;;;5074182;28;19915;-46
2023/04/02 02:19:55;;;;;;;;;;;26.90;99.90;;;;;;5091880;28;20011;-47
2023/04/02 02:22:29;;;;;;;;;;;26.90;99.90;;;;;;5092263;28;19912;-47
2023/04/02 02:24:56;;;;;;;;;;;26.90;99.90;;;;;;5091921;28;19915;-46
2023/04/02 02:27:21;;;;;;;;;;;26.90;99.90;;;;;;5091832;28;19908;-46
2023/04/02 02:29:50;;;;;;;;;;;26.90;99.90;;;;;;5091923;28;19920;-47
2023/04/02 02:32:16;;;;;;;;;;;26.90;99.90;;;;;;5074125;28;20252;-47
2023/04/02 02:34:47;;;;;;;;;;;26.90;99.90;;;;;;5091938;28;19908;-46
2023/04/02 02:37:28;;;;;;;;;;;26.90;99.90;;;;;;5074118;28;20364;-46
2023/04/02 02:39:55;;;;;;;;;;;26.90;99.90;;;;;;5073635;28;19941;-46
2023/04/02 02:42:26;;;;;;;;;;;26.90;99.90;;;;;;5091747;28;19927;-50
2023/04/02 02:44:53;;;;;;;;;;;26.90;99.90;;;;;;5091747;28;19915;-47
2023/04/02 02:47:22;;;;;;;;;;;26.80;99.90;;;;;;5092436;28;19909;-46
2023/04/02 02:49:51;;;;;;;;;;;26.80;99.90;;;;;;5095288;28;20264;-46
2023/04/02 02:52:18;;;;;;;;;;;26.90;99.90;;;;;;5095728;28;19912;-46
2023/04/02 02:54:49;;;;;;;;;;;26.80;99.90;;;;;;5095474;28;19909;-46
2023/04/02 02:57:19;;;;;;;;;;;26.80;99.90;;;;;;5095440;28;20021;-47
2023/04/02 02:59:45;;;;;;;;;;;26.80;99.90;;;;;;5095865;28;19916;-46
2023/04/02 03:02:12;;;;;;;;;;;26.80;99.90;;;;;;5095263;28;19908;-46
2023/04/02 03:04:38;;;;;;;;;;;26.80;99.90;;;;;;5094872;28;20256;-46
2023/04/02 03:07:05;;;;;;;;;;;26.80;99.90;;;;;;5093857;28;19912;-46
2023/04/02 03:09:46;;;;;;;;;;;26.80;99.90;;;;;;5094971;28;19915;-47
2023/04/02 03:12:29;;;;;;;;;;;26.70;99.90;;;;;;5091527;28;19916;-47
2023/04/02 03:14:55;;;;;;;;;;;26.70;99.90;;;;;;5088386;28;19919;-46
2023/04/02 03:17:33;;;;;;;;;;;26.70;99.90;;;;;;5073648;28;20357;-47
2023/04/02 03:20:05;;;;;;;;;;;26.70;99.90;;;;;;5092571;28;20278;-46
2023/04/02 03:22:36;;;;;;;;;;;26.70;99.90;;;;;;5092408;28;20409;-47
2023/04/02 03:25:02;;;;;;;;;;;26.70;99.90;;;;;;5092425;28;20275;-47
2023/04/02 03:27:27;;;;;;;;;;;26.70;99.90;;;;;;5092675;28;19908;-47
2023/04/02 03:30:11;;;;;;;;;;;26.70;99.90;;;;;;5074081;28;19994;-47
2023/04/02 03:32:39;;;;;;;;;;;26.70;99.90;;;;;;5092164;28;19911;-46
2023/04/02 03:35:34;;;;;;;;;;;26.70;99.90;;;;;;5092203;28;19959;-47
2023/04/02 03:38:03;;;;;;;;;;;26.70;99.90;;;;;;5071038;28;20003;-46
2023/04/02 03:40:39;;;;;;;;;;;26.70;99.90;;;;;;5093086;28;20006;-46
2023/04/02 03:43:24;;;;;;;;;;;26.70;99.90;;;;;;5094264;28;19965;-46
2023/04/02 03:45:51;;;;;;;;;;;26.70;99.90;;;;;;5075927;28;19909;-46
2023/04/02 03:48:32;;;;;;;;;;;26.70;99.90;;;;;;5094441;28;19912;-46
2023/04/02 03:51:06;;;;;;;;;;;26.70;99.90;;;;;;5094185;28;19999;-46
2023/04/02 03:53:32;;;;;;;;;;;26.60;99.90;;;;;;5094109;28;19908;-46
2023/04/02 03:55:58;;;;;;;;;;;26.60;99.90;;;;;;5094137;28;19959;-46
2023/04/02 03:58:24;;;;;;;;;;;26.60;99.90;;;;;;5093842;28;19915;-46
2023/04/02 04:01:08;;;;;;;;;;;26.60;99.90;;;;;;5094696;22;19924;-53
2023/04/02 04:03:39;;;;;;;;;;;26.60;99.90;;;;;;5061223;28;19954;-52
2023/04/02 04:06:08;;;;;;;;;;;26.60;99.90;;;;;;5073766;28;19908;-52
2023/04/02 04:08:41;;;;;;;;;;;26.60;99.90;;;;;;5073649;28;19913;-52
2023/04/02 04:11:14;;;;;;;;;;;26.60;99.90;;;;;;5073650;28;19916;-52
2023/04/02 04:13:52;;;;;;;;;;;26.60;99.90;;;;;;5073384;28;19909;-52
2023/04/02 04:16:20;;;;;;;;;;;26.60;99.90;;;;;;5073963;28;20007;-52
2023/04/02 04:18:50;;;;;;;;;;;26.60;99.90;;;;;;5073565;28;19942;-52
2023/04/02 04:21:28;;;;;;;;;;;26.60;99.90;;;;;;5073208;28;19917;-53
2023/04/02 04:23:54;;;;;;;;;;;26.50;99.90;;;;;;5055549;28;19909;-54
2023/04/02 04:26:38;;;;;;;;;;;26.50;99.90;;;;;;5073508;28;19924;-53
2023/04/02 04:29:22;;;;;;;;;;;26.50;99.90;;;;;;5073212;28;19912;-52
2023/04/02 04:31:48;;;;;;;;;;;26.50;99.90;;;;;;5073334;28;20062;-53
2023/04/02 04:34:17;;;;;;;;;;;26.50;99.90;;;;;;5073239;28;20296;-53
2023/04/02 04:37:01;;;;;;;;;;;26.50;99.90;;;;;;5072825;28;19909;-54
2023/04/02 04:39:42;;;;;;;;;;;26.50;99.90;;;;;;5073178;28;19930;-53
2023/04/02 04:42:13;;;;;;;;;;;26.50;99.90;;;;;;5054869;28;19916;-52
2023/04/02 04:44:42;;;;;;;;;;;26.50;99.90;;;;;;5073128;28;19912;-52
2023/04/02 04:47:15;;;;;;;;;;;26.40;99.90;;;;;;5072864;28;19908;-52
2023/04/02 04:49:43;;;;;;;;;;;26.40;99.90;;;;;;5072822;28;19916;-52
2023/04/02 04:52:19;;;;;;;;;;;26.50;99.90;;;;;;5072894;28;20280;-52
2023/04/02 04:54:45;;;;;;;;;;;26.40;99.90;;;;;;5072779;28;19920;-53
2023/04/02 04:57:20;;;;;;;;;;;26.40;99.90;;;;;;5072544;28;19908;-54
2023/04/02 04:59:48;;;;;;;;;;;26.40;99.90;;;;;;5072254;28;19981;-52
2023/04/02 05:02:21;;;;;;;;;;;26.40;99.90;;;;;;5072858;28;19942;-53
2023/04/02 05:04:48;;;;;;;;;;;26.40;99.90;;;;;;5072389;28;19951;-52
2023/04/02 05:07:14;;;;;;;;;;;26.40;99.90;;;;;;5059460;28;19912;-52
2023/04/02 05:09:50;;;;;;;;;;;26.40;99.90;;;;;;5072616;28;19909;-53
2023/04/02 05:12:20;;;;;;;;;;;26.30;99.90;;;;;;5059090;28;19908;-52
2023/04/02 05:14:49;;;;;;;;;;;26.40;99.90;;;;;;5072743;28;19908;-54
2023/04/02 05:17:15;;;;;;;;;;;26.30;99.90;;;;;;5072556;28;19912;-53
2023/04/02 05:19:59;;;;;;;;;;;26.30;99.90;;;;;;5072330;28;20249;-53
2023/04/02 05:22:33;;;;;;;;;;;26.30;99.90;;;;;;5060667;28;19908;-53
2023/04/02 05:25:06;;;;;;;;;;;26.30;99.90;;;;;;5072469;28;19916;-54
2023/04/02 05:27:39;;;;;;;;;;;26.30;99.90;;;;;;5072385;28;19908;-53
2023/04/02 05:30:07;;;;;;;;;;;26.30;99.90;;;;;;5072320;28;19948;-53
2023/04/02 05:32:36;;;;;;;;;;;26.30;99.90;;;;;;5072266;28;19913;-53
2023/04/02 05:35:05;;;;;;;;;;;26.30;99.90;;;;;;5072118;28;20260;-53
2023/04/02 05:37:31;;;;;;;;;;;26.30;99.90;;;;;;5072421;28;19920;-53
2023/04/02 05:39:58;;;;;;;;;;;26.30;99.90;;;;;;5072094;28;20294;-53
2023/04/02 05:42:26;;;;;;;;;;;26.30;99.90;;;;;;5072399;28;19915;-53
2023/04/02 05:45:18;;;;;;;;;;;26.30;99.90;;;;;;5072524;28;20461;-53
2023/04/02 05:47:45;;;;;;;;;;;26.20;99.90;;;;;;5057373;28;19914;-54
2023/04/02 05:50:31;;;;;;;;;;;26.20;99.90;;;;;;5072144;28;19915;-54
2023/04/02 05:53:01;;;;;;;;;;;26.20;99.90;;;;;;5071577;28;20402;-53
2023/04/02 05:55:33;;;;;;;;;;;26.20;99.90;;;;;;5072324;28;19909;-54
2023/04/02 05:58:06;;;;;;;;;;;26.20;99.90;;;;;;5072140;28;19908;-54
2023/04/02 06:00:35;;;;;;;;;;;26.20;99.90;;;;;;5071897;28;19966;-55
2023/04/02 06:03:06;;;;;;;;;;;26.20;99.90;;;;;;5072191;28;19916;-54
2023/04/02 06:05:37;;;;;;;;;;;26.20;99.90;;;;;;5056996;28;20360;-53
2023/04/02 06:08:06;;;;;;;;;;;26.20;99.90;;;;;;5072213;28;19909;-53
2023/04/02 06:10:54;;;;;;;;;;;26.20;99.90;;;;;;5071914;28;19909;-54
2023/04/02 06:13:20;;;;;;;;;;;26.20;99.90;;;;;;5071781;28;20372;-54
2023/04/02 06:15:45;;;;;;;;;;;26.20;99.90;;;;;;5072213;28;19962;-54
2023/04/02 06:18:16;;;;;;;;;;;26.20;99.90;;;;;;5072018;28;20384;-54
2023/04/02 06:20:42;;;;;;;;;;;26.10;99.90;;;;;;5053643;28;19916;-53
2023/04/02 06:23:20;;;;;;;;;;;26.10;99.90;;;;;;5073963;28;19908;-55
2023/04/02 06:25:52;;;;;;;;;;;26.10;99.90;;;;;;5062489;28;19908;-54
2023/04/02 06:28:20;;;;;;;;;;;26.10;99.90;;;;;;5075204;28;20251;-54
2023/04/02 06:30:46;;;;;;;;;;;26.10;99.90;;;;;;5075642;28;19953;-54
2023/04/02 06:33:12;;;;;;;;;;;26.10;99.90;;;;;;5075608;28;19914;-53
2023/04/02 06:35:39;;;;;;;;;;;26.10;99.90;;;;;;5075318;28;19999;-54
2023/04/02 06:38:06;;;;;;;;;;;26.10;99.90;;;;;;5075677;28;20279;-53
2023/04/02 06:40:43;;;;;;;;;;;26.10;99.90;;;;;;5075120;28;20330;-53
2023/04/02 06:43:17;;;;;;;;;;;26.10;99.90;;;;;;5075223;28;19920;-52
2023/04/02 06:45:45;;;;;;;;;;;26.10;99.90;;;;;;5061694;28;19919;-55
2023/04/02 06:48:15;;;;;;;;;;;26.10;99.90;;;;;;5075415;28;19909;-55
2023/04/02 06:50:53;;;;;;;;;;;26.10;99.90;;;;;;5075135;28;19908;-54
2023/04/02 06:53:28;;;;;;;;;;;26.10;99.90;;;;;;5057269;28;19974;-53
2023/04/02 06:56:03;;;;;;;;;;;26.10;99.90;;;;;;5075573;28;19931;-54
2023/04/02 06:58:29;;;;;;;;;;;26.10;99.90;;;;;;5074655;28;20340;-53
2023/04/02 07:00:54;;;;;;;;;;;26.10;99.90;;;;;;5075220;28;20019;-53
2023/04/02 07:03:24;;;;;;;;;;;26.10;99.90;;;;;;5074802;28;19915;-54
2023/04/02 07:05:50;;;;;;;;;;;26.10;99.90;;;;;;5075069;28;20007;-53
2023/04/02 07:08:16;;;;;;;;;;;26.10;99.90;;;;;;5074799;28;19952;-52
2023/04/02 07:10:42;;;;;;;;;;;26.10;99.90;;;;;;5074911;28;19908;-52
2023/04/02 07:13:14;;;;;;;;;;;26.10;99.90;;;;;;5074776;28;20326;-53
2023/04/02 07:15:40;;;;;;;;;;;26.10;99.90;;;;;;5074816;28;19942;-53
2023/04/02 07:18:05;;;;;;;;;;;26.10;99.90;;;;;;5074788;28;20360;-53
2023/04/02 07:20:33;;;;;;;;;;;26.10;99.90;;;;;;5074208;28;19944;-53
2023/04/02 07:22:58;;;;;;;;;;;26.10;99.90;;;;;;5074687;28;19908;-52
2023/04/02 07:25:25;;;;;;;;;;;26.10;99.90;;;;;;5074835;28;19958;-52
2023/04/02 07:27:51;;;;;;;;;;;26.10;99.90;;;;;;5074328;28;19999;-52
2023/04/02 07:30:17;;;;;;;;;;;26.10;99.90;;;;;;5074494;28;19912;-52
2023/04/02 07:32:43;;;;;;;;;;;26.10;99.90;;;;;;5074376;28;20022;-52
2023/04/02 07:35:09;;;;;;;;;;;26.20;99.90;;;;;;5073946;28;20279;-52
2023/04/02 07:37:35;;;;;;;;;;;26.10;99.90;;;;;;5074591;28;20377;-52
2023/04/02 07:40:01;;;;;;;;;;;26.20;99.90;;;;;;5074114;28;20011;-53
2023/04/02 07:42:26;;;;;;;;;;;26.20;99.90;;;;;;5074405;28;19992;-52
2023/04/02 07:44:52;;;;;;;;;;;26.20;99.90;;;;;;5074344;28;19916;-52
2023/04/02 07:47:17;;;;;;;;;;;26.20;99.90;;;;;;5074215;28;20330;-52
2023/04/02 07:49:43;;;;;;;;;;;26.20;99.90;;;;;;5074126;28;20358;-53
2023/04/02 07:52:10;;;;;;;;;;;26.20;99.90;;;;;;5074186;28;19915;-53
2023/04/02 07:54:37;;;;;;;;;;;26.20;99.90;;;;;;5074016;28;19908;-53
2023/04/02 07:57:02;;;;;;;;;;;26.20;99.90;;;;;;5073921;28;19908;-53
2023/04/02 07:59:28;;;;;;;;;;;26.20;99.90;;;;;;5074184;28;19909;-52
2023/04/02 08:01:53;;;;;;;;;;;26.20;99.90;;;;;;5073981;28;20322;-52
2023/04/02 08:04:21;;;;;;;;;;;26.30;99.90;;;;;;5073863;28;19912;-53
2023/04/02 08:06:47;;;;;;;;;;;26.30;99.90;;;;;;5073720;28;19935;-53
2023/04/02 08:09:13;;;;;;;;;;;26.20;99.90;;;;;;5073875;28;19912;-52
2023/04/02 08:11:40;;;;;;;;;;;26.30;99.90;;;;;;5073540;28;19915;-53
2023/04/02 08:14:07;;;;;;;;;;;26.30;99.90;;;;;;5073528;28;20013;-55
2023/04/02 08:16:49;;;;;;;;;;;26.30;99.90;;;;;;5073703;28;19912;-53
2023/04/02 08:19:15;;;;;;;;;;;26.30;99.90;;;;;;5073641;28;19916;-54
2023/04/02 08:21:41;;;;;;;;;;;26.30;99.90;;;;;;5073273;28;19916;-53
2023/04/02 08:24:07;;;;;;;;;;;26.30;99.90;;;;;;5073773;28;19909;-53
2023/04/02 08:26:32;;;;;;;;;;;26.30;99.90;;;;;;5073320;28;20348;-54
2023/04/02 08:28:58;;;;;;;;;;;26.30;99.90;;;;;;5073873;28;20376;-54
2023/04/02 08:31:24;;;;;;;;;;;26.40;99.90;;;;;;5073457;28;20457;-53
2023/04/02 08:33:49;;;;;;;;;;;26.40;99.90;;;;;;5073342;28;19999;-54
2023/04/02 08:36:15;;;;;;;;;;;26.40;99.90;;;;;;5073469;28;19908;-55
2023/04/02 08:38:41;;;;;;;;;;;26.40;99.90;;;;;;5073158;28;19908;-55
2023/04/02 08:41:07;;;;;;;;;;;26.40;99.90;;;;;;5073296;28;19924;-56
2023/04/02 08:43:39;;;;;;;;;;;26.40;99.90;;;;;;5073030;28;19908;-54
2023/04/02 08:46:20;;;;;;;;;;;26.40;99.90;;;;;;5072554;28;19909;-54
2023/04/02 08:48:48;;;;;;;;;;;26.40;99.90;;;;;;5059929;28;19908;-55
2023/04/02 08:51:20;;;;;;;;;;;26.40;99.90;;;;;;5072906;28;19954;-55
2023/04/02 08:53:46;;;;;;;;;;;26.40;99.90;;;;;;5073171;28;19909;-55
2023/04/02 08:56:19;;;;;;;;;;;26.40;99.90;;;;;;5055026;28;19915;-53
2023/04/02 08:58:48;;;;;;;;;;;26.40;99.90;;;;;;5060047;28;19908;-53
2023/04/02 09:01:14;;;;;;;;;;;26.40;99.90;;;;;;5072990;28;20371;-57
2023/04/02 09:03:44;;;;;;;;;;;26.50;99.90;;;;;;5073061;28;19909;-56
2023/04/02 09:06:12;;;;;;;;;;;26.40;99.90;;;;;;5072930;28;20002;-56
2023/04/02 09:08:38;;;;;;;;;;;26.50;99.90;;;;;;5072795;28;19909;-56
2023/04/02 09:11:27;;;;;;;;;;;26.50;99.90;;;;;;5072809;28;19908;-55
2023/04/02 09:13:57;;;;;;;;;;;26.50;99.90;;;;;;5035026;28;19923;-54
2023/04/02 09:16:43;;;;;;;;;;;26.50;99.90;;;;;;5072868;28;19919;-54
2023/04/02 09:19:14;;;;;;;;;;;26.50;99.90;;;;;;5054965;28;19924;-53
2023/04/02 09:21:42;;;;;;;;;;;26.50;99.90;;;;;;5072368;28;19916;-56
2023/04/02 09:24:11;;;;;;;;;;;26.50;99.90;;;;;;5054831;28;20309;-56
2023/04/02 09:26:36;;;;;;;;;;;26.50;99.90;;;;;;5072840;28;20340;-55
2023/04/02 09:29:11;;;;;;;;;;;26.50;99.90;;;;;;5072523;28;19912;-55
2023/04/02 09:31:38;;;;;;;;;;;26.50;99.90;;;;;;5072990;28;19948;-56
2023/04/02 09:34:23;;;;;;;;;;;26.50;99.90;;;;;;5054955;28;19917;-53
2023/04/02 09:36:49;;;;;;;;;;;26.60;99.90;;;;;;5054642;28;19954;-55
2023/04/02 09:39:18;;;;;;;;;;;26.60;99.90;;;;;;5073091;28;19944;-56
2023/04/02 09:41:45;;;;;;;;;;;26.60;99.90;;;;;;5072751;28;19916;-55
2023/04/02 09:44:13;;;;;;;;;;;26.60;99.90;;;;;;5072950;28;19994;-54
2023/04/02 09:47:05;;;;;;;;;;;26.60;99.90;;;;;;5072868;28;20489;-54
2023/04/02 09:49:34;;;;;;;;;;;26.60;99.90;;;;;;5068298;28;20007;-56
2023/04/02 09:52:18;;;;;;;;;;;26.60;99.90;;;;;;5072556;28;19913;-54
2023/04/02 09:54:44;;;;;;;;;;;26.70;99.90;;;;;;5072305;28;20381;-54
2023/04/02 09:57:23;;;;;;;;;;;26.70;99.90;;;;;;5073957;28;20004;-55
2023/04/02 10:00:08;;;;;;;;;;;26.70;99.90;;;;;;5076158;28;19923;-54
2023/04/02 10:02:34;;;;;;;;;;;26.70;99.90;;;;;;5076620;28;19908;-54
2023/04/02 10:05:02;;;;;;;;;;;26.70;99.90;;;;;;5076338;28;20432;-54
2023/04/02 10:07:44;;;;;;;;;;;26.70;99.90;;;;;;5075976;28;20100;-54
2023/04/02 10:10:10;;;;;;;;;;;26.80;99.90;;;;;;5075997;28;19908;-54
2023/04/02 10:12:39;;;;;;;;;;;26.80;99.90;;;;;;5076087;28;20336;-56
2023/04/02 10:15:05;;;;;;;;;;;26.80;99.90;;;;;;5076217;28;19915;-56
2023/04/02 10:17:33;;;;;;;;;;;26.80;99.90;;;;;;5076209;28;19931;-54
2023/04/02 10:20:01;;;;;;;;;;;26.80;99.90;;;;;;5057920;28;19912;-55
2023/04/02 10:22:27;;;;;;;;;;;26.80;99.90;;;;;;5075922;28;19947;-54
2023/04/02 10:24:52;;;;;;;;;;;26.90;99.90;;;;;;5075756;28;20001;-54
2023/04/02 10:27:38;;;;;;;;;;;26.90;99.90;;;;;;5075615;28;20461;-54
2023/04/02 10:30:10;;;;;;;;;;;26.90;99.90;;;;;;5075721;28;19913;-54
2023/04/02 10:32:41;;;;;;;;;;;26.90;99.90;;;;;;5076085;28;19914;-55
2023/04/02 10:35:07;;;;;;;;;;;26.90;99.90;;;;;;5075328;28;19917;-55
2023/04/02 10:37:46;;;;;;;;;;;27.00;99.90;;;;;;5075760;28;19950;-54
2023/04/02 10:40:11;;;;;;;;;;;27.00;99.90;;;;;;5057405;28;19917;-54
2023/04/02 10:42:45;;;;;;;;;;;27.00;99.90;;;;;;5075356;28;20020;-54
2023/04/02 10:45:19;;;;;;;;;;;27.00;99.90;;;;;;5057330;28;19916;-54
2023/04/02 10:47:54;;;;;;;;;;;27.00;99.90;;;;;;5075563;28;19915;-54
2023/04/02 10:50:23;;;;;;;;;;;27.00;99.90;;;;;;5075076;28;19908;-53
2023/04/02 10:52:55;;;;;;;;;;;27.00;99.90;;;;;;5075234;28;19909;-55
2023/04/02 10:55:22;;;;;;;;;;;27.10;99.90;;;;;;5075062;28;19909;-54
2023/04/02 10:57:49;;;;;;;;;;;27.10;99.90;;;;;;5075154;28;19904;-54
2023/04/02 11:00:29;;;;;;;;;;;27.10;99.90;;;;;;5074878;28;19920;-54
2023/04/02 11:03:04;;;;;;;;;;;27.10;99.90;;;;;;5075040;28;19995;-54
2023/04/02 11:05:35;;;;;;;;;;;27.10;99.90;;;;;;5074940;28;20026;-55
2023/04/02 11:08:21;;;;;;;;;;;27.20;99.90;;;;;;5074374;28;20025;-54
2023/04/02 11:10:49;;;;;;;;;;;27.20;99.90;;;;;;5063470;28;19908;-54
2023/04/02 11:13:27;;;;;;;;;;;27.20;99.90;;;;;;5074742;28;19908;-55
2023/04/02 11:15:52;;;;;;;;;;;27.20;99.90;;;;;;5075055;28;20368;-54
2023/04/02 11:18:22;;;;;;;;;;;27.30;99.90;;;;;;5074539;28;19919;-54
2023/04/02 11:20:59;;;;;;;;;;;27.30;99.90;;;;;;5074679;28;19917;-54
2023/04/02 11:23:26;;;;;;;;;;;27.40;99.90;;;;;;5056495;28;19923;-55
2023/04/02 11:26:11;;;;;;;;;;;27.30;99.90;;;;;;5074779;28;19928;-54
2023/04/02 11:28:37;;;;;;;;;;;27.40;99.90;;;;;;5074331;28;20371;-54
2023/04/02 11:31:03;;;;;;;;;;;27.40;99.90;;;;;;5074602;28;19913;-53
2023/04/02 11:33:38;;;;;;;;;;;27.40;99.90;;;;;;5056582;28;19920;-54
2023/04/02 11:36:23;;;;;;;;;;;27.40;99.90;;;;;;5074322;28;19912;-54
2023/04/02 11:38:50;;;;;;;;;;;27.40;99.90;;;;;;5074417;28;19908;-54
2023/04/02 11:41:35;;;;;;;;;;;27.40;99.90;;;;;;5074302;28;19950;-53
2023/04/02 11:44:01;;;;;;;;;;;27.40;99.90;;;;;;5073986;28;19938;-53
2023/04/02 11:46:35;;;;;;;;;;;27.50;99.90;;;;;;5073966;28;19908;-54
2023/04/02 11:49:20;;;;;;;;;;;27.50;99.90;;;;;;5056595;28;20261;-55
2023/04/02 11:51:47;;;;;;;;;;;27.50;99.90;;;;;;5073866;28;19928;-54
2023/04/02 11:54:27;;;;;;;;;;;27.50;99.90;;;;;;5074244;28;19909;-53
2023/04/02 11:57:08;;;;;;;;;;;27.60;99.90;;;;;;5074028;28;19908;-53
2023/04/02 12:00:10;;;;;;;;;;;27.50;99.90;;;;;;5073542;28;19919;-53
2023/04/02 12:02:56;;;;;;;;;;;27.60;99.90;;;;;;5013171;28;19920;-53
2023/04/02 12:05:25;;;;;;;;;;;27.60;99.90;;;;;;5032716;28;19935;-53
2023/04/02 12:07:51;;;;;;;;;;;27.60;99.90;;;;;;5055974;28;20395;-53
2023/04/02 12:10:27;;;;;;;;;;;27.60;99.90;;;;;;5073636;28;19908;-54
2023/04/02 12:12:53;;;;;;;;;;;27.60;99.90;;;;;;5055677;28;19913;-53
2023/04/02 12:15:25;;;;;;;;;;;27.60;99.90;;;;;;5073657;28;19909;-53
2023/04/02 12:17:50;;;;;;;;;;;27.70;99.90;;;;;;5073761;28;20360;-54
2023/04/02 12:20:22;;;;;;;;;;;27.70;99.90;;;;;;5072218;28;19921;-53
2023/04/02 12:22:49;;;;;;;;;;;27.70;99.90;;;;;;5072871;28;19916;-53
2023/04/02 12:25:32;;;;;;;;;;;27.70;99.90;;;;;;5073633;28;19966;-54
2023/04/02 12:28:10;;;;;;;;;;;27.70;99.90;;;;;;5073364;28;19958;-54
2023/04/02 12:30:39;;;;;;;;;;;27.80;99.90;;;;;;5073464;28;19912;-53
2023/04/02 12:33:13;;;;;;;;;;;27.70;99.90;;;;;;5073069;28;20048;-54
2023/04/02 12:35:40;;;;;;;;;;;27.80;99.90;;;;;;5071996;28;20360;-54
2023/04/02 12:38:17;;;;;;;;;;;27.80;99.90;;;;;;5073181;28;19908;-51
2023/04/02 12:40:50;;;;;;;;;;;27.70;99.90;;;;;;5073078;28;20319;-53
2023/04/02 12:43:26;;;;;;;;;;;27.70;99.90;;;;;;5072981;28;19977;-52
2023/04/02 12:45:53;;;;;;;;;;;27.70;99.90;;;;;;5072675;28;19916;-53
2023/04/02 12:48:18;;;;;;;;;;;27.60;99.90;;;;;;5073158;28;19905;-54
2023/04/02 12:50:44;;;;;;;;;;;27.60;99.90;;;;;;5072153;28;19916;-49
2023/04/02 12:53:20;;;;;;;;;;;27.50;99.90;;;;;;5072828;28;19999;-49
2023/04/02 12:55:50;;;;;;;;;;;27.50;99.90;;;;;;5072501;28;19962;-53
2023/04/02 12:58:28;;;;;;;;;;;27.50;99.90;;;;;;5054560;28;20326;-50
2023/04/02 13:01:08;;;;;;;;;;;27.50;99.90;;;;;;5072686;28;19935;-52
2023/04/02 13:03:34;;;;;;;;;;;27.40;99.90;;;;;;5071596;28;19916;-55
2023/04/02 13:06:00;;;;;;;;;;;27.40;99.90;;;;;;5072738;28;19915;-55
2023/04/02 13:08:31;;;;;;;;;;;27.40;99.90;;;;;;5072911;28;19995;-55
2023/04/02 13:11:01;;;;;;;;;;;27.40;99.90;;;;;;5072312;28;19939;-53
2023/04/02 13:13:28;;;;;;;;;;;27.30;99.90;;;;;;5072431;28;19987;-52
2023/04/02 13:16:20;;;;;;;;;;;27.30;99.90;;;;;;5072625;28;20263;-50
2023/04/02 13:18:47;;;;;;;;;;;27.30;99.90;;;;;;5067203;28;19966;-49
2023/04/02 13:21:15;;;;;;;;;;;27.30;99.90;;;;;;5072505;28;19927;-53
2023/04/02 13:23:41;;;;;;;;;;;27.30;99.90;;;;;;5072641;28;19944;-53
2023/04/02 13:26:13;;;;;;;;;;;27.30;99.90;;;;;;5072026;28;19912;-52
2023/04/02 13:28:41;;;;;;;;;;;27.20;99.90;;;;;;5072081;28;19913;-53
2023/04/02 13:31:12;;;;;;;;;;;27.20;99.90;;;;;;5071606;28;19927;-56
2023/04/02 13:33:37;;;;;;;;;;;27.20;99.90;;;;;;5072368;28;19908;-55
2023/04/02 13:36:03;;;;;;;;;;;27.20;99.90;;;;;;5072376;28;19920;-55
2023/04/02 13:38:29;;;;;;;;;;;27.20;99.90;;;;;;5072507;28;19912;-53
2023/04/02 13:40:54;;;;;;;;;;;27.20;99.90;;;;;;5072245;28;19916;-50
2023/04/02 13:43:22;;;;;;;;;;;27.20;99.90;;;;;;5071637;28;21345;-52
2023/04/02 13:45:50;;;;;;;;;;;27.30;99.90;;;;;;5071958;28;19995;-53
2023/04/02 13:48:17;;;;;;;;;;;27.40;99.90;;;;;;5072279;28;19908;-54
2023/04/02 13:50:43;;;;;;;;;;;27.40;99.90;;;;;;5072436;28;19996;-51
2023/04/02 13:53:14;;;;;;;;;;;27.40;99.90;;;;;;5071924;28;20004;-50
2023/04/02 13:55:41;;;;;;;;;;;27.40;99.90;;;;;;5072267;28;19915;-51
2023/04/02 13:58:07;;;;;;;;;;;27.50;99.90;;;;;;5072198;28;20284;-50
2023/04/02 14:00:36;;;;;;;;;;;27.50;99.90;;;;;;5069010;28;19924;-52
2023/04/02 14:03:13;;;;;;;;;;;27.50;99.90;;;;;;5063284;28;19981;-54
2023/04/02 14:05:39;;;;;;;;;;;27.50;99.90;;;;;;5071610;28;19962;-50
2023/04/02 14:09:16;;;;;;;42.47;5.32;;;27.50;99.90;;;;;;5177805;27;20110;-53
2023/04/02 14:11:53;;;;;;;75.15;8.48;;;27.50;99.90;;;;;;5150426;27;20023;-54
2023/04/02 14:14:32;;;;;;;56.70;9.38;;;27.40;99.90;;;;;;5150413;27;20455;-55
2023/04/02 14:17:11;;;;;;;33.13;4.80;;;27.40;99.90;;;;;;5131363;27;20026;-51
2023/04/02 14:19:59;;;;;;;31.55;5.57;;;27.40;99.90;;;;;;5159030;27;20027;-55
2023/04/02 14:23:00;;;;;;;23.23;4.57;;;27.40;99.90;;;;;;5148500;27;20050;-55
2023/04/02 14:25:53;;;;;;;23.50;5.57;;;27.40;99.90;;;;;;5152603;27;20478;-55
2023/04/02 14:28:36;;;;;;;20.48;4.85;;;27.40;99.90;;;;;;5166169;27;20037;-55
2023/04/02 14:31:31;;;;;;;18.42;3.60;;;27.40;99.90;;;;;;5164337;27;20057;-55
2023/04/02 14:34:27;;;;;;;25.38;5.25;;;27.30;99.90;;;;;;5167966;27;20023;-55
2023/04/02 14:36:59;;;;;;;25.50;5.37;;;27.30;99.90;;;;;;5161651;27;20026;-55